CheckWX is a tool to help pilots better visualize weather data.  It is not intended as a substitute for an official pre-flight weather briefing.

03:17:09 UTC

FAMM METAR
Mmabatho International Airport
Mafeking, South Africa
Current

17 mins ago

FAMM 270300Z 09003KT CAVOK 07/03 Q1024 NOSIG
Observed
May-27 @ 03:00 UTC
Wind
  • 090° at 3 KTS
Visibility
10,000+ meters
Flight Rules
VFR
Cloud Levels
  • Clear skies
Temperature
C / 45°F
Dewpoint
C / 37°F
Humidity
76%
Altimeter
30.24" Hg
Pressure
1023.92 hPa
Previous

1 hour ago

FAMM 270200Z AUTO 09005KT //// // ////// 07/03 Q1024
Observed
May-27 @ 02:00 UTC
Wind
  • 090° at 5 KTS
Visibility
Temperature
C / 45°F
Dewpoint
C / 37°F
Humidity
76%
Altimeter
30.24" Hg
Pressure
1023.92 hPa
Previous

2 hours ago

FAMM 270100Z AUTO 11003KT //// // ////// 08/04 Q1024
Observed
May-27 @ 01:00 UTC
Wind
  • 110° at 3 KTS
Visibility
Temperature
C / 46°F
Dewpoint
C / 39°F
Humidity
76%
Altimeter
30.24" Hg
Pressure
1023.92 hPa